createdAt,value
2018-05-11T00:00:04.598Z,80.40
2018-05-11T00:02:33.677Z,80.40
2018-05-11T00:05:02.787Z,80.10
2018-05-11T00:07:31.181Z,80.00
2018-05-11T00:10:00.205Z,80.00
2018-05-11T00:12:29.258Z,79.50
2018-05-11T00:14:58.315Z,80.40
2018-05-11T00:17:28.251Z,80.00
2018-05-11T00:19:57.374Z,80.00
2018-05-11T00:22:26.467Z,79.90
2018-05-11T00:24:55.542Z,79.70
2018-05-11T00:27:24.616Z,79.50
2018-05-11T00:29:54.440Z,80.80
2018-05-11T00:32:23.522Z,80.80
2018-05-11T00:34:52.616Z,80.60
2018-05-11T00:37:22.191Z,79.90
2018-05-11T00:39:51.222Z,79.90
2018-05-11T00:42:20.264Z,79.60
2018-05-11T00:44:49.297Z,79.80
2018-05-11T00:47:18.355Z,80.00
2018-05-11T00:49:47.387Z,79.60
2018-05-11T00:52:16.599Z,79.90
2018-05-11T00:54:45.637Z,79.20
2018-05-11T00:57:14.362Z,78.60
2018-05-11T00:59:43.412Z,78.90
2018-05-11T01:02:12.443Z,78.70
2018-05-11T01:04:42.376Z,79.10
2018-05-11T01:07:12.186Z,78.70
2018-05-11T01:09:41.974Z,79.00
2018-05-11T01:12:11.810Z,78.30
2018-05-11T01:14:41.599Z,78.80
2018-05-11T01:17:11.390Z,78.60
2018-05-11T01:19:40.462Z,78.60
2018-05-11T01:22:09.529Z,78.80
2018-05-11T01:24:38.597Z,78.70
2018-05-11T01:27:08.415Z,79.50
2018-05-11T01:29:37.211Z,79.50
2018-05-11T01:32:06.312Z,79.50
2018-05-11T01:34:35.403Z,79.30
2018-05-11T01:37:04.473Z,78.80
2018-05-11T01:39:33.616Z,78.80
2018-05-11T01:42:02.663Z,78.80
2018-05-11T01:44:31.728Z,78.10
2018-05-11T01:47:00.750Z,78.20
2018-05-11T01:49:30.584Z,77.60
2018-05-11T01:51:59.480Z,77.60
2018-05-11T01:54:29.299Z,76.90
2018-05-11T01:56:58.086Z,76.90
2018-05-11T01:59:27.183Z,77.30
2018-05-11T02:01:56.264Z,76.40
2018-05-11T02:04:26.059Z,76.20
2018-05-11T02:06:55.126Z,76.20
2018-05-11T02:09:23.830Z,76.40
2018-05-11T02:11:53.613Z,76.30
2018-05-11T02:14:22.642Z,76.20
2018-05-11T02:16:51.671Z,76.60
2018-05-11T02:19:20.724Z,77.30
2018-05-11T02:21:50.545Z,78.50
2018-05-11T02:24:20.019Z,78.80
2018-05-11T02:26:48.711Z,78.90
2018-05-11T02:29:17.756Z,77.70
2018-05-11T02:31:46.850Z,77.60
2018-05-11T02:34:16.034Z,77.30
2018-05-11T02:36:45.178Z,78.10
2018-05-11T02:39:13.904Z,78.30
2018-05-11T02:41:42.065Z,78.00
2018-05-11T02:44:11.531Z,78.40
2018-05-11T02:46:40.563Z,78.40
2018-05-11T02:49:10.382Z,78.60
2018-05-11T02:51:39.410Z,78.50
2018-05-11T02:54:09.235Z,77.60
2018-05-11T02:56:37.932Z,77.60
2018-05-11T02:59:07.080Z,77.70
2018-05-11T03:01:36.853Z,77.40
2018-05-11T03:04:05.560Z,77.40
2018-05-11T03:06:35.362Z,77.20
2018-05-11T03:09:04.510Z,77.00
2018-05-11T03:11:33.545Z,77.10
2018-05-11T03:14:02.599Z,77.00
2018-05-11T03:16:31.643Z,77.10
2018-05-11T03:19:01.121Z,76.70
2018-05-11T03:21:30.176Z,76.70
2018-05-11T03:23:59.202Z,76.70
2018-05-11T03:26:27.905Z,76.20
2018-05-11T03:28:57.914Z,76.70
2018-05-11T03:31:27.825Z,76.80
2018-05-11T03:33:57.025Z,76.80
2018-05-11T03:36:26.051Z,76.90
2018-05-11T03:38:55.191Z,77.10
2018-05-11T03:41:24.313Z,76.60
2018-05-11T03:43:53.372Z,76.70
2018-05-11T03:46:22.399Z,75.90
2018-05-11T03:48:51.443Z,76.10
2018-05-11T03:51:20.517Z,76.70
2018-05-11T03:53:49.543Z,77.10
2018-05-11T03:56:18.254Z,77.00
2018-05-11T03:58:47.280Z,76.50
2018-05-11T04:01:28.176Z,76.10
2018-05-11T04:04:08.254Z,76.10
2018-05-11T04:06:50.284Z,76.60
2018-05-11T04:09:19.328Z,76.60
2018-05-11T04:11:48.383Z,76.90
2018-05-11T04:14:18.184Z,77.40
2018-05-11T04:16:47.259Z,76.60
2018-05-11T04:19:16.305Z,77.10
2018-05-11T04:21:45.347Z,77.80
2018-05-11T04:24:14.393Z,77.90
2018-05-11T04:26:44.173Z,77.00
2018-05-11T04:29:13.977Z,76.30
2018-05-11T04:31:43.010Z,76.30
2018-05-11T04:34:12.049Z,76.40
2018-05-11T04:36:41.101Z,76.00
2018-05-11T04:39:09.825Z,75.70
2018-05-11T04:41:38.881Z,75.70
2018-05-11T04:44:08.056Z,75.90
2018-05-11T04:46:37.913Z,76.80
2018-05-11T04:49:06.976Z,76.80
2018-05-11T04:51:36.187Z,77.70
2018-05-11T04:54:04.912Z,77.20
2018-05-11T04:56:33.941Z,77.20
2018-05-11T04:59:02.696Z,77.40
2018-05-11T05:01:31.836Z,77.20
2018-05-11T05:04:01.605Z,77.20
2018-05-11T05:06:30.309Z,77.10
2018-05-11T05:09:00.148Z,77.50
2018-05-11T05:11:29.932Z,77.50
2018-05-11T05:13:59.739Z,78.00
2018-05-11T05:16:28.776Z,77.90
2018-05-11T05:18:57.651Z,78.70
2018-05-11T05:21:27.464Z,78.10
2018-05-11T05:23:56.556Z,78.10
2018-05-11T05:26:25.657Z,77.70
2018-05-11T05:28:54.345Z,77.60
2018-05-11T05:31:23.090Z,78.10
2018-05-11T05:33:52.144Z,78.20
2018-05-11T05:36:21.200Z,78.20
2018-05-11T05:38:50.290Z,78.10
2018-05-11T05:41:19.099Z,78.60
2018-05-11T05:43:48.297Z,78.70
2018-05-11T05:46:17.389Z,78.20
2018-05-11T05:48:46.446Z,77.10
2018-05-11T05:51:15.339Z,77.00
2018-05-11T05:53:44.617Z,77.90
2018-05-11T05:56:13.771Z,78.70
2018-05-11T05:58:42.846Z,77.50
2018-05-11T06:01:11.889Z,77.90
2018-05-11T06:03:40.926Z,77.10
2018-05-11T06:06:10.741Z,77.10
2018-05-11T06:08:40.308Z,77.50
2018-05-11T06:11:09.434Z,77.50
2018-05-11T06:13:39.240Z,77.50
2018-05-11T06:16:08.364Z,77.50
2018-05-11T06:18:37.426Z,77.40
2018-05-11T06:21:06.434Z,76.70
2018-05-11T06:23:35.473Z,76.80
2018-05-11T06:26:04.502Z,78.20
2018-05-11T06:28:33.535Z,75.70
2018-05-11T06:31:02.764Z,75.10
2018-05-11T06:33:32.742Z,74.50
2018-05-11T06:36:02.534Z,73.80
2018-05-11T06:38:32.473Z,73.90
2018-05-11T06:41:03.046Z,73.90
2018-05-11T06:43:32.083Z,73.90
2018-05-11T06:46:01.282Z,74.10
2018-05-11T06:48:30.516Z,73.20
2018-05-11T06:50:59.739Z,73.80
2018-05-11T06:53:28.983Z,73.50
2018-05-11T06:55:57.822Z,74.70
2018-05-11T06:58:28.108Z,72.90
2018-05-11T07:00:57.222Z,72.80
2018-05-11T07:03:26.592Z,72.80
2018-05-11T07:05:55.698Z,73.60
2018-05-11T07:08:24.787Z,73.10
2018-05-11T07:10:53.822Z,73.20
2018-05-11T07:13:22.978Z,73.60
2018-05-11T07:15:52.070Z,73.10
2018-05-11T07:18:21.155Z,72.90
2018-05-11T07:20:50.967Z,73.40
2018-05-11T07:23:20.783Z,73.80
2018-05-11T07:25:50.633Z,73.30
2018-05-11T07:28:20.567Z,73.30
2018-05-11T07:30:49.703Z,73.30
2018-05-11T07:33:18.740Z,72.50
2018-05-11T07:35:47.792Z,72.60
2018-05-11T07:38:16.889Z,71.50
2018-05-11T07:40:45.893Z,70.30
2018-05-11T07:43:15.005Z,71.20
2018-05-11T07:45:44.276Z,69.90
2018-05-11T07:48:13.364Z,69.80
2018-05-11T07:53:17.799Z,70.60
2018-05-11T07:55:47.566Z,69.00
2018-05-11T07:58:16.604Z,69.00
2018-05-11T08:00:45.705Z,68.60
2018-05-11T08:03:14.799Z,67.90
2018-05-11T08:05:43.893Z,67.20
2018-05-11T08:08:13.007Z,66.80
2018-05-11T08:10:42.142Z,66.30
2018-05-11T08:13:11.199Z,66.50
2018-05-11T08:15:40.318Z,66.70
2018-05-11T08:18:10.211Z,66.50
2018-05-11T08:20:39.323Z,66.50
2018-05-11T08:23:08.114Z,67.40
2018-05-11T08:25:37.167Z,67.90
2018-05-11T08:28:05.891Z,69.00
2018-05-11T08:30:34.948Z,69.00
2018-05-11T08:33:03.779Z,69.10
2018-05-11T08:35:32.830Z,68.80
2018-05-11T08:38:01.871Z,69.00
2018-05-11T08:40:31.109Z,68.20
2018-05-11T08:43:00.215Z,67.90
2018-05-11T08:45:29.306Z,67.40
2018-05-11T08:47:58.423Z,67.70
2018-05-11T08:50:28.387Z,69.10
2018-05-11T08:52:58.209Z,70.00
2018-05-11T08:55:28.021Z,69.90
2018-05-11T08:57:57.823Z,70.50
2018-05-11T09:00:27.679Z,70.20
2018-05-11T09:02:56.830Z,70.20
2018-05-11T09:05:25.995Z,69.90
2018-05-11T09:07:55.030Z,69.00
2018-05-11T09:10:24.829Z,67.70
2018-05-11T09:12:53.910Z,67.80
2018-05-11T09:15:22.951Z,67.50
2018-05-11T09:17:52.081Z,67.20
2018-05-11T09:20:21.144Z,66.40
2018-05-11T09:22:50.239Z,66.00
2018-05-11T09:25:19.310Z,65.20
2018-05-11T09:27:48.127Z,64.80
2018-05-11T09:30:16.521Z,64.40
2018-05-11T09:32:45.566Z,64.90
2018-05-11T09:35:15.356Z,63.10
2018-05-11T09:37:44.398Z,63.10
2018-05-11T09:40:13.483Z,61.20
2018-05-11T09:42:43.271Z,60.50
2018-05-11T09:45:13.073Z,60.70
2018-05-11T09:47:42.901Z,61.50
2018-05-11T09:50:11.937Z,61.50
2018-05-11T09:52:40.977Z,61.90
2018-05-11T09:55:10.119Z,62.50
2018-05-11T09:57:39.150Z,62.50
2018-05-11T10:00:08.180Z,63.30
2018-05-11T10:02:37.261Z,63.10
2018-05-11T10:05:06.331Z,63.20
2018-05-11T10:07:35.380Z,63.30
2018-05-11T10:10:03.757Z,63.80
2018-05-11T10:12:32.800Z,63.50
2018-05-11T10:15:01.936Z,62.80
2018-05-11T10:17:30.965Z,66.60
2018-05-11T10:20:00.093Z,65.10
2018-05-11T10:22:30.064Z,62.80
2018-05-11T10:24:59.176Z,62.80
2018-05-11T10:27:28.238Z,62.70
2018-05-11T10:29:57.320Z,62.20
2018-05-11T10:32:25.998Z,61.10
2018-05-11T10:34:55.852Z,61.10
2018-05-11T10:37:24.919Z,60.10
2018-05-11T10:39:54.026Z,59.10
2018-05-11T10:42:23.186Z,59.60
2018-05-11T10:44:53.013Z,59.00
2018-05-11T10:47:22.046Z,59.00
2018-05-11T10:49:51.108Z,59.00
2018-05-11T10:52:20.195Z,58.40
2018-05-11T10:54:50.009Z,58.80
2018-05-11T10:57:18.469Z,58.70
2018-05-11T10:59:48.298Z,60.00
2018-05-11T11:02:18.121Z,60.00
2018-05-11T11:04:48.127Z,61.50
2018-05-11T11:07:18.044Z,60.20
2018-05-11T11:09:47.082Z,60.20
2018-05-11T11:12:16.115Z,60.70
2018-05-11T11:14:45.922Z,60.20
2018-05-11T11:17:16.378Z,61.20
2018-05-11T11:19:45.466Z,61.10
2018-05-11T11:22:14.618Z,61.40
2018-05-11T11:24:44.668Z,60.60
2018-05-11T11:27:13.874Z,60.60
2018-05-11T11:29:43.017Z,60.40
2018-05-11T11:32:12.079Z,61.00
2018-05-11T11:34:41.473Z,61.10
2018-05-11T11:37:10.804Z,61.50
2018-05-11T11:39:39.865Z,61.10
2018-05-11T11:42:08.963Z,60.50
2018-05-11T11:44:38.250Z,62.00
2018-05-11T11:47:07.355Z,61.30
2018-05-11T11:49:36.395Z,61.00
2018-05-11T11:52:05.428Z,60.60
2018-05-11T11:54:34.526Z,60.30
2018-05-11T11:57:03.566Z,61.60
2018-05-11T11:59:32.617Z,61.00
2018-05-11T12:02:01.765Z,60.70
2018-05-11T12:04:30.905Z,61.40
2018-05-11T12:06:59.706Z,61.70
2018-05-11T12:09:28.746Z,62.00
2018-05-11T12:11:58.085Z,61.10
2018-05-11T12:14:27.902Z,62.30
2018-05-11T12:16:56.915Z,62.30
2018-05-11T12:19:25.984Z,61.40
2018-05-11T12:21:55.799Z,62.00
2018-05-11T12:24:24.895Z,62.00
2018-05-11T12:26:53.949Z,61.90
2018-05-11T12:29:23.007Z,61.80
2018-05-11T12:31:52.117Z,62.10
2018-05-11T12:34:21.236Z,61.90
2018-05-11T12:36:50.329Z,62.50
2018-05-11T12:39:19.401Z,61.90
2018-05-11T12:41:48.463Z,61.70
2018-05-11T12:44:17.268Z,61.60
2018-05-11T12:46:46.306Z,62.20
2018-05-11T12:49:16.143Z,62.20
2018-05-11T12:51:45.958Z,63.60
2018-05-11T12:54:14.987Z,63.70
2018-05-11T12:56:44.043Z,63.50
2018-05-11T12:59:13.962Z,63.10
2018-05-11T13:01:43.050Z,63.00
2018-05-11T13:04:12.870Z,63.80
2018-05-11T13:06:41.887Z,63.80
2018-05-11T13:09:10.927Z,64.70
2018-05-11T13:11:40.740Z,64.80
2018-05-11T13:14:10.673Z,65.00
2018-05-11T13:16:40.456Z,65.20
2018-05-11T13:19:10.069Z,64.30
2018-05-11T13:21:39.911Z,64.20
2018-05-11T13:24:09.001Z,63.30
2018-05-11T13:26:38.053Z,64.70
2018-05-11T13:29:06.759Z,65.00
2018-05-11T13:31:36.577Z,63.90
2018-05-11T13:34:06.507Z,63.40
2018-05-11T13:36:36.027Z,63.10
2018-05-11T13:39:04.419Z,63.10
2018-05-11T13:41:33.499Z,63.80
2018-05-11T13:44:03.207Z,64.10
2018-05-11T13:46:32.355Z,63.90
2018-05-11T13:49:01.735Z,63.70
2018-05-11T13:51:30.847Z,64.10
2018-05-11T13:53:59.568Z,63.40
2018-05-11T13:56:28.428Z,64.30
2018-05-11T13:58:57.461Z,64.00
2018-05-11T14:01:26.517Z,64.60
2018-05-11T14:03:55.543Z,64.60
2018-05-11T14:06:24.348Z,64.60
2018-05-11T14:08:53.531Z,64.10
2018-05-11T14:11:22.624Z,64.30
2018-05-11T14:13:51.637Z,64.50
2018-05-11T14:16:20.673Z,64.10
2018-05-11T14:18:49.800Z,63.80
2018-05-11T14:21:18.850Z,64.70
2018-05-11T14:23:47.886Z,64.70
2018-05-11T14:26:17.850Z,64.90
2018-05-11T14:28:47.611Z,64.70
2018-05-11T14:31:17.176Z,64.90
2018-05-11T14:33:46.998Z,63.60
2018-05-11T14:36:16.124Z,64.20
2018-05-11T14:38:45.160Z,65.30
2018-05-11T14:41:14.335Z,65.40
2018-05-11T14:43:43.449Z,65.20
2018-05-11T14:46:12.191Z,65.50
2018-05-11T14:48:41.269Z,66.20
2018-05-11T14:51:10.403Z,65.10
2018-05-11T14:53:39.645Z,66.30
2018-05-11T14:56:08.763Z,66.80
2018-05-11T14:58:38.586Z,67.60
2018-05-11T15:01:08.612Z,67.00
2018-05-11T15:03:37.703Z,67.00
2018-05-11T15:06:06.801Z,68.50
2018-05-11T15:08:35.832Z,66.90
2018-05-11T15:11:04.862Z,66.60
2018-05-11T15:13:34.697Z,66.00
2018-05-11T15:16:03.394Z,66.10
2018-05-11T15:18:32.222Z,65.90
2018-05-11T15:21:01.264Z,65.80
2018-05-11T15:23:30.302Z,65.20
2018-05-11T15:25:59.014Z,65.60
2018-05-11T15:28:28.815Z,66.00
2018-05-11T15:30:57.949Z,66.10
2018-05-11T15:33:26.980Z,66.30
2018-05-11T15:35:56.129Z,65.70
2018-05-11T15:38:26.209Z,67.00
2018-05-11T15:40:55.319Z,67.00
2018-05-11T15:43:25.174Z,67.20
2018-05-11T15:45:54.341Z,67.30
2018-05-11T15:48:23.428Z,67.00
2018-05-11T15:50:52.757Z,66.60
2018-05-11T15:53:22.058Z,66.60
2018-05-11T15:55:50.504Z,66.40
2018-05-11T15:58:21.312Z,65.90
2018-05-11T16:00:50.570Z,65.90
2018-05-11T16:03:19.695Z,66.10
2018-05-11T16:05:48.582Z,65.30
2018-05-11T16:08:17.502Z,65.30
2018-05-11T16:10:46.230Z,65.60
2018-05-11T16:13:15.259Z,65.80
2018-05-11T16:15:44.298Z,65.50
2018-05-11T16:18:14.110Z,65.50
2018-05-11T16:20:44.186Z,65.80
2018-05-11T16:23:13.237Z,65.90
2018-05-11T16:25:43.045Z,66.50
2018-05-11T16:28:12.102Z,66.30
2018-05-11T16:30:40.787Z,65.70
2018-05-11T16:33:09.831Z,65.60
2018-05-11T16:35:38.866Z,66.70
2018-05-11T16:38:08.097Z,67.10
2018-05-11T16:40:38.015Z,67.00
2018-05-11T16:43:07.246Z,67.00
2018-05-11T16:45:36.306Z,67.10
2018-05-11T16:48:05.836Z,67.30
2018-05-11T16:50:34.889Z,67.30
2018-05-11T16:53:03.821Z,67.60
2018-05-11T16:55:33.953Z,68.30
2018-05-11T16:58:03.069Z,67.50
2018-05-11T17:00:32.101Z,67.40
2018-05-11T17:03:00.878Z,67.20
2018-05-11T17:05:30.706Z,68.10
2018-05-11T17:07:59.769Z,67.70
2018-05-11T17:10:29.584Z,69.10
2018-05-11T17:12:58.673Z,68.30
2018-05-11T17:15:27.715Z,68.90
2018-05-11T17:17:56.757Z,69.00
2018-05-11T17:20:26.558Z,70.50
2018-05-11T17:22:55.661Z,69.40
2018-05-11T17:25:24.517Z,69.60
2018-05-11T17:27:53.547Z,70.10
2018-05-11T17:30:22.593Z,70.10
2018-05-11T17:32:51.394Z,70.20
2018-05-11T17:35:20.261Z,70.50
2018-05-11T17:37:49.754Z,71.80
2018-05-11T17:40:19.556Z,71.20
2018-05-11T17:42:49.386Z,70.90
2018-05-11T17:45:19.187Z,70.80
2018-05-11T17:47:49.013Z,71.10
2018-05-11T17:50:18.107Z,71.10
2018-05-11T17:52:47.283Z,71.70
2018-05-11T17:55:17.122Z,72.10
2018-05-11T17:57:46.247Z,71.60
2018-05-11T18:00:15.493Z,72.00
2018-05-11T18:02:44.561Z,72.60
2018-05-11T18:05:13.654Z,73.30
2018-05-11T18:07:42.732Z,73.20
2018-05-11T18:10:11.859Z,73.10
2018-05-11T18:12:41.296Z,72.60
2018-05-11T18:15:12.148Z,72.60
2018-05-11T18:17:41.255Z,72.60
2018-05-11T18:20:10.429Z,72.50
2018-05-11T18:22:39.535Z,73.00
2018-05-11T18:25:08.623Z,73.00
2018-05-11T18:27:37.771Z,73.00
2018-05-11T18:30:06.623Z,73.30
2018-05-11T18:32:35.681Z,74.30
2018-05-11T18:35:05.128Z,74.20
2018-05-11T18:37:33.856Z,74.20
2018-05-11T18:40:03.418Z,74.60
2018-05-11T18:42:33.419Z,74.60
2018-05-11T18:45:02.438Z,74.60
2018-05-11T18:47:31.542Z,76.00
2018-05-11T18:50:00.561Z,76.30
2018-05-11T18:52:30.460Z,76.10
2018-05-11T18:55:00.519Z,76.00
2018-05-11T18:57:29.596Z,76.00
2018-05-11T18:59:58.698Z,76.80
2018-05-11T19:02:28.525Z,76.60
2018-05-11T19:04:57.643Z,76.50
2018-05-11T19:07:26.818Z,76.10
2018-05-11T19:09:56.730Z,76.50
2018-05-11T19:12:26.127Z,75.90
2018-05-11T19:14:55.438Z,76.00
2018-05-11T19:17:25.402Z,77.00
2018-05-11T19:19:54.596Z,77.00
2018-05-11T19:22:24.546Z,77.90
2018-05-11T19:24:53.628Z,77.90
2018-05-11T19:27:22.963Z,78.40
2018-05-11T19:29:52.050Z,78.90
2018-05-11T19:32:21.127Z,80.00
2018-05-11T19:34:50.175Z,80.40
2018-05-11T19:37:19.323Z,80.60
2018-05-11T19:39:48.412Z,80.00
2018-05-11T19:42:17.457Z,80.00
2018-05-11T19:44:46.704Z,80.00
2018-05-11T19:47:15.804Z,80.60
2018-05-11T19:49:45.062Z,80.90
2018-05-11T19:52:14.230Z,81.00
2018-05-11T19:54:43.392Z,81.00
2018-05-11T19:57:12.530Z,81.60
2018-05-11T19:59:41.849Z,81.60
2018-05-11T20:02:10.910Z,82.10
2018-05-11T20:04:40.028Z,81.80
2018-05-11T20:07:08.915Z,81.80
2018-05-11T20:09:37.972Z,81.80
2018-05-11T20:12:07.034Z,81.90
2018-05-11T20:14:36.593Z,82.10
2018-05-11T20:17:05.412Z,82.30
2018-05-11T20:19:35.309Z,82.30
2018-05-11T20:22:04.410Z,82.20
2018-05-11T20:24:33.602Z,82.40
2018-05-11T20:27:02.683Z,83.20
2018-05-11T20:29:31.778Z,83.70
2018-05-11T20:32:00.835Z,84.20
2018-05-11T20:34:30.028Z,84.30
2018-05-11T20:36:59.821Z,84.10
2018-05-11T20:39:29.042Z,84.00
2018-05-11T20:41:58.138Z,84.20
2018-05-11T20:44:27.207Z,84.60
2018-05-11T20:46:58.065Z,85.20
2018-05-11T20:49:27.133Z,85.30
2018-05-11T20:51:56.948Z,86.70
2018-05-11T20:54:26.786Z,86.70
2018-05-11T20:56:55.880Z,86.70
2018-05-11T20:59:24.968Z,87.60
2018-05-11T21:01:54.050Z,88.10
2018-05-11T21:04:23.205Z,87.80
2018-05-11T21:06:52.299Z,87.40
2018-05-11T21:09:21.455Z,88.00
2018-05-11T21:11:50.554Z,87.80
2018-05-11T21:14:19.294Z,87.40
2018-05-11T21:16:48.129Z,87.50
2018-05-11T21:19:17.280Z,88.10
2018-05-11T21:21:47.147Z,88.00
2018-05-11T21:24:16.296Z,87.90
2018-05-11T21:26:46.131Z,85.90
2018-05-11T21:29:15.281Z,85.90
2018-05-11T21:31:44.450Z,86.30
2018-05-11T21:34:13.518Z,87.10
2018-05-11T21:36:42.833Z,87.40
2018-05-11T21:39:12.019Z,88.00
2018-05-11T21:41:41.805Z,88.30
2018-05-11T21:44:11.622Z,88.10
2018-05-11T21:46:41.463Z,88.20
2018-05-11T21:49:10.601Z,88.10
2018-05-11T21:51:39.623Z,87.90
2018-05-11T21:54:09.430Z,88.10
2018-05-11T21:56:38.598Z,88.10
2018-05-11T21:59:07.900Z,88.10
2018-05-11T22:01:37.044Z,88.10
2018-05-11T22:04:06.873Z,87.70
2018-05-11T22:06:35.926Z,87.70
2018-05-11T22:09:04.313Z,87.40
2018-05-11T22:11:34.140Z,87.20
2018-05-11T22:14:03.174Z,87.20
2018-05-11T22:16:32.210Z,87.30
2018-05-11T22:19:02.031Z,87.30
2018-05-11T22:21:31.070Z,87.20
2018-05-11T22:24:00.183Z,87.50
2018-05-11T22:26:28.916Z,87.30
2018-05-11T22:28:58.039Z,87.40
2018-05-11T22:31:27.149Z,87.40
2018-05-11T22:33:56.217Z,87.40
2018-05-11T22:36:25.495Z,87.50
2018-05-11T22:38:54.864Z,87.50
2018-05-11T22:41:24.711Z,87.60
2018-05-11T22:43:53.724Z,87.60
2018-05-11T22:46:22.772Z,87.80
2018-05-11T22:48:52.563Z,88.00
2018-05-11T22:51:21.619Z,87.90
2018-05-11T22:53:50.663Z,87.70
2018-05-11T22:56:20.244Z,88.30
2018-05-11T22:58:49.307Z,88.30
2018-05-11T23:01:19.853Z,88.40
2018-05-11T23:03:48.919Z,88.30
2018-05-11T23:06:17.644Z,88.00
2018-05-11T23:08:46.694Z,88.10
2018-05-11T23:11:15.734Z,88.30
2018-05-11T23:13:44.756Z,88.10
2018-05-11T23:16:14.809Z,87.60
2018-05-11T23:18:43.998Z,88.30
2018-05-11T23:21:13.449Z,88.60
2018-05-11T23:23:42.477Z,88.50
2018-05-11T23:26:12.307Z,88.50
2018-05-11T23:28:41.862Z,88.50
2018-05-11T23:31:10.602Z,88.60
2018-05-11T23:33:40.410Z,87.70
2018-05-11T23:36:09.458Z,87.70
2018-05-11T23:38:38.552Z,87.90
2018-05-11T23:41:07.609Z,88.90
2018-05-11T23:43:36.674Z,88.50
2018-05-11T23:46:06.640Z,88.30
2018-05-11T23:48:36.227Z,88.30
2018-05-11T23:51:05.379Z,88.30
2018-05-11T23:53:34.463Z,88.30
2018-05-11T23:56:03.159Z,87.90
2018-05-11T23:58:32.972Z,88.20
